Tiempo atmosférico en la estación meteorológica de Pedrosillo de Los Aires, Salamanca (865 m.)



Fecha
DESCASC
Temp. máxima en grados centígrados (hora)
DESCASC
Temp. mínima en grados centígrados (hora)
DESCASC
Temp. media en grados centígrados
DESCASC
Racha de viento máxima en m/sg (hora)
DESCASC
Velocidad máxima media en intervalos de 10 minutos(hora)
DESCASC
Precipitaciones diarias en mm
DESCASC
Precipitaciones de 00:00 a 06:00 en mm
DESCASC
Precipitaciones de 06:00 a 12:00 en mm
DESCASC
Precipitaciones de 12:00 a 18:00 en mm
DESCASC
Precipitaciones de 18:00 a 24:00 en mm
DESCASC
27-10-2020 13.4 (14:50) 2.8 (01:50) 8.1 8.33 (18:00) 5.83 (18:20) 0.2 0 0 0 0.2
26-10-2020 10.6 (17:00) 4.2 (23:59) 7.4 8.89 (08:10) 5.28 (15:10) 1 1 0 0 0
25-10-2020 13 (13:10) 5.7 (23:50) 9.3 21.94 (10:10) 13.89 (10:10) 10.4 0.2 0.4 9.6 0.2
24-10-2020 14.2 (15:30) 3.9 (00:00) 9 12.22 (18:10) 8.33 (18:10) 0 0 0 0 0
23-10-2020 14 (17:20) 7.4 (00:00) 10.7 8.61 (11:10) 5.56 (17:00) 4.8 4.6 0.2 0 0
22-10-2020 14.5 (14:50) 9 (00:00) 11.8 10.83 (16:50) 6.94 (16:50) 7.4 2.2 1.8 0.8 2.6
21-10-2020 16.2 (16:00) 10.5 (00:00) 13.4 19.44 (01:20) 12.78 (02:00) 1.8 1 0.2 0 0.6
20-10-2020 17.6 (00:00) 12.1 (00:00) 14.9 20 (23:40) 12.22 (23:40) 45.4 5.2 2.2 17.4 20.6
19-10-2020 23.3 (14:10) 1.9 (00:00) 12.6 21.11 (13:20) 14.44 (13:30) 0 0 0 0 0
18-10-2020 21.8 (15:50) 0 (00:00) 10.9 5 (15:50) 2.5 (15:20) 0 0 0 0 0
17-10-2020 19.1 (16:40) -0.6 (-00:0) 9.3 8.61 (12:20) 5.56 (12:20) 0 0 0 0 0
16-10-2020 15.8 (17:10) -2 (-00:0) 6.9 8.06 (01:10) 5.28 (00:10) 0 0 0 0 0
15-10-2020 15.8 (16:40) -3.2 (-00:0) 6.3 8.61 (15:20) 5.83 (23:40) 0 0 0 0 0
14-10-2020 15.8 (18:10) -0.2 (00:00) 7.8 8.89 (17:50) 4.72 (12:10) 0 0 0 0 0
13-10-2020 20.9 (15:50) 2.6 (00:00) 11.7 12.22 (17:10) 6.39 (17:20) 0 0 0 0 0
12-10-2020 16.4 (15:50) 0.3 (00:00) 8.3 11.11 (12:10) 7.22 (12:20) 0 0 0 0 0
11-10-2020 16.3 (16:40) 3.5 (00:00) 9.9 13.06 (14:00) 8.89 (12:00) 0 0 0 0 0
10-10-2020 21.4 (16:30) 4.8 (00:00) 13.1 11.67 (14:30) 7.78 (14:40) 0 0 0 0 0
09-10-2020 25.6 (15:00) 4.5 (00:00) 15.1 7.22 (16:10) 4.72 (16:10) 0 0 0 0 0
08-10-2020 25.7 (16:20) 5.5 (00:00) 15.6 11.94 (15:40) 7.22 (15:40) 0 0 0 0 0
07-10-2020 24.7 (17:30) 6.1 (00:00) 15.4 8.06 (13:10) 5 (13:10) 0 0 0 0 0
06-10-2020 23.7 (16:30) 11 (00:00) 17.4 9.44 (17:10) 5.28 (17:10) 0 0 0 0 0
05-10-2020 18.1 (17:10) 6.8 (00:00) 12.5 8.89 (16:20) 5 (15:10) 0 0 0 0 0
04-10-2020 15.6 (15:30) 5.2 (00:00) 10.4 12.78 (15:00) 6.94 (15:00) 0.6 0 0.6 0 0
03-10-2020 14.2 (16:00) 4.6 (00:00) 9.4 11.67 (15:20) 7.22 (13:10) 0 0 0 0 0
02-10-2020 12.9 (09:10) 6.2 (00:00) 9.5 19.17 (10:10) 10.28 (06:00) 8.6 0 6.8 1.8 0
01-10-2020 19.4 (17:10) 7.8 (07:10) 13.6 11.94 (19:00) 7.22 (19:00) 0 0 0 0 0
30-09-2020 26.1 (15:50) 4.5 (00:00) 15.3 8.61 (16:40) 5 (19:30) 0 0 0 0 0

Gráficas

Temp. máximas Temp. mínimas Temp. medias Precipitaciones Rachas de viento máximas Velocidades máximas media en intervalos de 10 minutos

Datos horarios

Fecha y hora oficial Temperatura (ºC) Velocidad del viento (km/h) Dirección del viento Racha (km/h) Dirección de racha Precipitación (mm) Presión (hPa) Tendencia (hPa) Humedad (%)
2020-10-29 23:00:00 6.2 5 Oeste 8 Oeste 0 -- -- 95
2020-10-29 22:00:00 7.8 2 Oeste 7 Sudoeste 0 -- -- 93
2020-10-29 21:00:00 9.3 2 Sudoeste 10 Sudoeste 0 -- -- 92
2020-10-29 20:00:00 10.9 5 Sur 7 Sur 0 -- -- 88
2020-10-29 19:00:00 13.1 5 Sudoeste 13 Sudoeste 0 -- -- 80
2020-10-29 18:00:00 16.4 8 Sudoeste 16 Sudoeste 0 -- -- 68
2020-10-29 17:00:00 17.6 12 Sudoeste 21 Oeste 0 -- -- 62
2020-10-29 16:00:00 17.7 12 Sudoeste 20 Sudoeste 0 -- -- 59
2020-10-29 15:00:00 17.3 12 Sudoeste 20 Sudoeste 0 -- -- 61
2020-10-29 14:00:00 16.2 10 Sudoeste 19 Oeste 0 -- -- 65
2020-10-29 13:00:00 15.1 11 Sudoeste 24 Sudoeste 0 -- -- 67
2020-10-29 12:00:00 13.4 11 Sudoeste 17 Sudoeste 0 -- -- 72
2020-10-29 11:00:00 11.2 7 Sur 18 Sur 0 -- -- 78
2020-10-29 10:00:00 9.6 10 Sur 15 Sur 0 -- -- 90
2020-10-29 09:00:00 7.6 3 Sur 6 Oeste 0 -- -- 98
2020-10-29 08:00:00 6.2 5 Oeste 11 Oeste 0 -- -- 97
2020-10-29 07:00:00 5.9 8 Sudoeste 14 Sudoeste 0 -- -- 98
2020-10-29 06:00:00 7.2 4 Este 8 Sudoeste 0 -- -- 99
2020-10-29 05:00:00 6.9 6 Sudoeste 9 Sudoeste 0 -- -- 99
2020-10-29 04:00:00 6.5 2 Sudoeste 5 Sudoeste 0 -- -- 99
2020-10-29 03:00:00 6.3 0 Calma 8 Oeste 0 -- -- 99
2020-10-29 02:00:00 5.7 4 Oeste 8 Oeste 0 -- -- 98
2020-10-29 01:00:00 4.8 6 Sudoeste 8 Sudoeste 0 -- -- 97
2020-10-29 00:00:00 6.8 3 Oeste 8 Oeste 0 -- -- 96
2020-10-28 23:00:00 7.4 4 Sudoeste 8 Sudoeste 0 -- -- 96
2020-10-28 22:00:00 8.9 5 Sudoeste 7 Sudoeste 0 -- -- 94
2020-10-28 21:00:00 9.6 5 Sur 12 Oeste 0 -- -- 90
2020-10-28 20:00:00 11.1 7 Oeste 18 Sudoeste 0 -- -- 88
2020-10-28 19:00:00 12.5 14 Sudoeste 21 Sur 0 -- -- 79
2020-10-28 18:00:00 13.5 12 Sudoeste 28 Sudoeste 0 -- -- 78
2020-10-28 17:00:00 14.6 18 Sudoeste 32 Sudoeste 0 -- -- 72
2020-10-28 16:00:00 15.4 18 Sudoeste 32 Sudoeste 0 -- -- 68
2020-10-28 15:00:00 15.3 17 Sudoeste 32 Sudoeste 0 -- -- 74
2020-10-28 14:00:00 14.6 20 Sudoeste 35 Sudoeste 0 -- -- 79
2020-10-28 13:00:00 14.4 23 Sudoeste 35 Sudoeste 0 -- -- 81
2020-10-28 12:00:00 13.9 21 Sudoeste 35 Sudoeste 0 -- -- 84
2020-10-28 11:00:00 12.1 15 Sudoeste 27 Sudoeste 0 -- -- 94
2020-10-28 10:00:00 11.2 16 Sudoeste 26 Sudoeste 0 -- -- 95
2020-10-28 09:00:00 10.5 13 Sudoeste 27 Sudoeste 0 -- -- 96
2020-10-28 08:00:00 10.1 12 Sudoeste 19 Sudoeste 0 -- -- 96
2020-10-28 07:00:00 10 8 Sur 16 Sur 0 -- -- 96
2020-10-28 06:00:00 9.9 8 Sudoeste 23 Sudoeste 0 -- -- 97
2020-10-28 05:00:00 9.7 16 Sudoeste 28 Sudoeste 0 -- -- 96
2020-10-28 04:00:00 9.6 18 Sudoeste 31 Sudoeste 0 -- -- 96
2020-10-28 03:00:00 9.8 10 Sudoeste 30 Sudoeste 0 -- -- 95
2020-10-28 02:00:00 9.7 17 Sudoeste 27 Sudoeste 0 -- -- 95
2020-10-28 01:00:00 9.7 17 Sudoeste 27 Sudoeste 0 -- -- 94
2020-10-28 00:00:00 9.3 17 Sudoeste 26 Sudoeste 0 -- -- 93
2020-10-27 23:00:00 9.3 15 Sudoeste 27 Sudoeste 0 -- -- 94
2020-10-27 22:00:00 8.8 9 Sur 19 Sudoeste 0 -- -- 93
2020-10-27 21:00:00 8.8 16 Sudoeste 23 Sudoeste 0 -- -- 92
2020-10-27 20:00:00 8.8 14 Sudoeste 24 Sudoeste 0.2 -- -- 91
2020-10-27 19:00:00 9.2 16 Sudoeste 28 Sudoeste 0 -- -- 88
2020-10-27 18:00:00 10.1 19 Sudoeste 30 Sudoeste 0 -- -- 82
2020-10-27 17:00:00 11.4 17 Sudoeste 28 Sudoeste 0 -- -- 72
2020-10-27 16:00:00 12.2 18 Sudoeste 27 Sudoeste 0 -- -- 67
2020-10-27 15:00:00 13.1 12 Sudoeste 24 Sudoeste 0 -- -- 63
2020-10-27 14:00:00 12.7 13 Sudoeste 25 Sudoeste 0 -- -- 64
2020-10-27 13:00:00 12.2 16 Sudoeste 26 Sudoeste 0 -- -- 66
2020-10-27 12:00:00 10.5 15 Sudoeste 28 Sudoeste 0 -- -- 72
2020-10-27 11:00:00 9.5 12 Sudoeste 21 Sur 0 -- -- 75
2020-10-27 10:00:00 8.5 11 Sudoeste 19 Sur 0 -- -- 80
2020-10-27 09:00:00 6.1 8 Sudoeste 15 Sudoeste 0 -- -- 87
2020-10-27 08:00:00 5.3 10 Sur 19 Sudoeste 0 -- -- 88
2020-10-27 07:00:00 5 12 Sudoeste 17 Sudoeste 0 -- -- 91
2020-10-27 06:00:00 4.5 6 Sudoeste 15 Sur 0 -- -- 92
2020-10-27 05:00:00 4.9 10 Sudoeste 16 Sur 0 -- -- 91
2020-10-27 04:00:00 4.7 7 Sudoeste 15 Sudoeste 0 -- -- 92
2020-10-27 03:00:00 3.3 6 Sudoeste 17 Sudoeste 0 -- -- 94
2020-10-27 02:00:00 2.9 8 Sur 14 Sudoeste 0 -- -- 94
2020-10-27 01:00:00 3.1 5 Sudoeste 15 Sudoeste 0 -- -- 92
2020-10-27 00:00:00 4.2 8 Sudoeste 10 Sudoeste 0 -- -- 89
2020-10-26 23:00:00 5.2 4 Oeste 15 Oeste 0 -- -- 85
2020-10-26 22:00:00 5.4 8 Sudoeste 14 Sudoeste 0 -- -- 85
2020-10-26 21:00:00 5.8 5 Sudoeste 10 Sudoeste 0 -- -- 80
2020-10-26 20:00:00 6.2 8 Sudoeste 10 Sudoeste 0 -- -- 78
2020-10-26 19:00:00 7.4 5 Sudoeste 9 Sudoeste 0 -- -- 70
2020-10-26 18:00:00 9.2 5 Oeste 24 Oeste 0 -- -- 65
2020-10-26 17:00:00 10.6 15 Oeste 26 Oeste 0 -- -- 57
2020-10-26 16:00:00 10.1 18 Oeste 31 Noroeste 0 -- -- 62
2020-10-26 15:00:00 9.6 16 Oeste 30 Oeste 0 -- -- 63
2020-10-26 14:00:00 9.9 16 Noroeste 31 Oeste 0 -- -- 65
2020-10-26 13:00:00 9.5 15 Noroeste 30 Noroeste 0 -- -- 68
2020-10-26 12:00:00 8 12 Noroeste 24 Oeste 0 -- -- 73
2020-10-26 11:00:00 7 15 Noroeste 26 Oeste 0 -- -- 77
2020-10-26 10:00:00 5.9 9 Noroeste 21 Oeste 0 -- -- 84
2020-10-26 09:00:00 5.1 10 Oeste 32 Oeste 0 -- -- 88
2020-10-26 08:00:00 5 10 Oeste 25 Sudoeste 0 -- -- 88
2020-10-26 07:00:00 4.9 8 Oeste 19 Oeste 0 -- -- 91
2020-10-26 06:00:00 4.5 8 Oeste 21 Oeste 0 -- -- 92
2020-10-26 05:00:00 4.6 8 Oeste 24 Oeste 0.2 -- -- 93
2020-10-26 04:00:00 5.3 7 Noroeste 26 Oeste 0.8 -- -- 93
2020-10-26 03:00:00 5.9 14 Oeste 26 Oeste 0 -- -- 87
2020-10-26 02:00:00 5.7 10 Sudoeste 22 Oeste 0 -- -- 89
2020-10-26 01:00:00 5.8 10 Sudoeste 20 Sudoeste 0 -- -- 89
2020-10-26 00:00:00 5.8 11 Sudoeste 18 Sudoeste 0 -- -- 91
2020-10-25 23:00:00 6.6 10 Sudoeste 24 Sudoeste 0 -- -- 89
2020-10-25 22:00:00 6.8 8 Sudoeste 19 Sudoeste 0 -- -- 91
2020-10-25 21:00:00 7.1 11 Sudoeste 31 Oeste 0 -- -- 89
2020-10-25 20:00:00 7.1 19 Oeste 41 Noroeste 0.2 -- -- 91
2020-10-25 19:00:00 9 19 Oeste 41 Oeste 0 -- -- 87
2020-10-25 18:00:00 9.2 26 Oeste 45 Oeste 0.2 -- -- 85
2020-10-25 17:00:00 10.6 21 Oeste 41 Oeste 1.6 -- -- 89
2020-10-25 16:00:00 11.4 24 Oeste 46 Sudoeste 1.2 -- -- 93
2020-10-25 15:00:00 10.9 28 Oeste 56 Sudoeste 6.6 -- -- 95
2020-10-25 14:00:00 12.2 44 Sudoeste 70 Sudoeste 0 -- -- 93
2020-10-25 13:00:00 12.6 45 Sudoeste 71 Sudoeste 0 -- -- 90
2020-10-25 12:00:00 11.8 48 Sudoeste 76 Sudoeste 0.2 -- -- 91
2020-10-25 11:00:00 11.7 45 Sudoeste 79 Sudoeste 0.2 -- -- 91
2020-10-25 10:00:00 11.4 44 Sudoeste 73 Sudoeste 0 -- -- 91
2020-10-25 09:00:00 10.6 41 Sudoeste 72 Sudoeste 0 -- -- 93
2020-10-25 08:00:00 10.1 28 Sudoeste 60 Sudoeste 0 -- -- 92
2020-10-25 07:00:00 9.6 26 Sudoeste 66 Sudoeste 0 -- -- 91
2020-10-25 06:00:00 9.9 24 Sudoeste 44 Sudoeste 0.2 -- -- 95
2020-10-25 05:00:00 9.6 30 Sudoeste 56 Sudoeste 0 -- -- 96
2020-10-25 04:00:00 9.6 32 Sudoeste 50 Sudoeste 0 -- -- 94
2020-10-25 03:00:00 9.9 28 Sudoeste 48 Sudoeste -- -- -- 91
2020-10-25 02:00:00 10.6 28 Sudoeste 46 Sudoeste 0 -- -- 86
2020-10-25 01:00:00 10.6 30 Sudoeste 50 Sudoeste 0 -- -- 82
2020-10-25 00:00:00 9.9 24 Sudoeste 38 Sudoeste 0 -- -- 85
2020-10-24 23:00:00 10.1 18 Sudoeste 34 Sudoeste 0 -- -- 86
2020-10-24 22:00:00 10 18 Sudoeste 36 Sudoeste 0 -- -- 87
2020-10-24 21:00:00 9.9 22 Sudoeste 37 Sudoeste 0 -- -- 87
2020-10-24 20:00:00 10.2 21 Sudoeste 36 Sudoeste 0 -- -- 83
2020-10-24 19:00:00 10.5 19 Sudoeste 44 Sudoeste 0 -- -- 80
2020-10-24 18:00:00 11.4 27 Sudoeste 41 Sudoeste 0 -- -- 74
2020-10-24 17:00:00 12.8 23 Sudoeste 40 Sudoeste 0 -- -- 69
2020-10-24 16:00:00 14 22 Sudoeste 38 Oeste 0 -- -- 63
2020-10-24 15:00:00 14.1 23 Sudoeste 35 Sudoeste 0 -- -- 61
2020-10-24 14:00:00 13.2 22 Sudoeste 36 Oeste 0 -- -- 61
2020-10-24 13:00:00 13.2 15 Sudoeste 26 Sudoeste 0 -- -- 67
2020-10-24 12:00:00 11.7 13 Sudoeste 20 Sudoeste 0 -- -- 73
2020-10-24 11:00:00 8.7 5 Sudoeste 9 Sudoeste 0 -- -- 85
2020-10-24 10:00:00 5.3 5 Oeste 12 Sudoeste 0 -- -- 95
2020-10-24 09:00:00 4 9 Sudoeste 16 Oeste 0 -- -- 96
2020-10-24 08:00:00 4.1 9 Oeste 12 Oeste 0 -- -- 96
2020-10-24 07:00:00 4.9 7 Sudoeste 11 Sudoeste 0 -- -- 95
2020-10-24 06:00:00 6 6 Sudoeste 10 Sudoeste 0 -- -- 96
2020-10-24 05:00:00 6.4 5 Oeste 9 Oeste 0 -- -- 96
2020-10-24 04:00:00 6.6 5 Oeste 10 Sur 0 -- -- 95
2020-10-24 03:00:00 7 5 Sudoeste 11 Sur 0 -- -- 95
2020-10-24 02:00:00 7 5 Sudoeste 10 Sudoeste 0 -- -- 94
2020-10-24 01:00:00 7.4 8 Sudoeste 10 Sudoeste 0 -- -- 93
2020-10-24 00:00:00 8 6 Sudoeste 8 Sudoeste 0 -- -- 93
2020-10-23 23:00:00 8.3 3 Sudoeste 10 Sudoeste 0 -- -- 92
2020-10-23 22:00:00 8.6 7 Sudoeste 12 Sudoeste 0 -- -- 92
2020-10-23 21:00:00 8.7 4 Sudoeste 10 Sudoeste 0 -- -- 89
2020-10-23 20:00:00 10.1 8 Sudoeste 22 Sudoeste 0 -- -- 82
2020-10-23 19:00:00 13 14 Sudoeste 24 Sudoeste 0 -- -- 72
2020-10-23 18:00:00 12.2 11 Sudoeste 31 Sudoeste 0 -- -- 72
2020-10-23 17:00:00 13.5 20 Sudoeste 29 Sudoeste 0 -- -- 67
2020-10-23 16:00:00 12.5 15 Sudoeste 29 Sudoeste 0 -- -- 75
2020-10-23 15:00:00 13.2 16 Sudoeste 30 Sudoeste 0 -- -- 71
2020-10-23 14:00:00 12.5 13 Sudoeste 27 Sudoeste 0 -- -- 71
2020-10-23 13:00:00 12.1 18 Sudoeste 29 Sudoeste 0 -- -- 76
2020-10-23 12:00:00 9.8 14 Sudoeste 31 Sudoeste 0 -- -- 87
2020-10-23 11:00:00 9 16 Sudoeste 24 Sudoeste 0 -- -- 91
2020-10-23 10:00:00 8.4 14 Sudoeste 23 Sudoeste 0 -- -- 96
2020-10-23 09:00:00 7.5 14 Sudoeste 22 Sudoeste 0 -- -- 96
2020-10-23 08:00:00 8 11 Sudoeste 22 Sudoeste 0.2 -- -- 97
2020-10-23 07:00:00 8.3 13 Sudoeste 22 Sudoeste 0 -- -- 97
2020-10-23 06:00:00 8.3 10 Sudoeste 19 Sudoeste 0.8 -- -- 97
2020-10-23 05:00:00 8 9 Sudoeste 14 Sudoeste 0 -- -- 97
2020-10-23 04:00:00 7.7 5 Oeste 14 Sudoeste 0.2 -- -- 96
2020-10-23 03:00:00 7.8 7 Sudoeste 14 Sur 0 -- -- 96
2020-10-23 02:00:00 8.3 9 Sudoeste 18 Sudoeste 1.6 -- -- 97
2020-10-23 01:00:00 8.5 5 Sur 15 Oeste 2 -- -- 96
2020-10-23 00:00:00 9 11 Sudoeste 31 Sur 1.2 -- -- 91
2020-10-22 23:00:00 9.6 7 Sudoeste 12 Sur 0.6 -- -- 96
2020-10-22 22:00:00 9.3 3 Sur 11 Sudoeste 0 -- -- 94
2020-10-22 21:00:00 9.2 4 Sur 10 Sur 0 -- -- 92
2020-10-22 20:00:00 10.2 5 Sudoeste 26 Sudoeste 0 -- -- 88
2020-10-22 19:00:00 11.8 12 Sudoeste 23 Sudoeste 0.8 -- -- 92
2020-10-22 18:00:00 12.7 14 Sudoeste 30 Sudoeste 0.2 -- -- 86
2020-10-22 17:00:00 12.3 19 Sudoeste 39 Oeste 0 -- -- 85
2020-10-22 16:00:00 12.8 22 Sudoeste 36 Sudoeste 0 -- -- 80
2020-10-22 15:00:00 14.3 20 Sudoeste 33 Sudoeste 0 -- -- 81
2020-10-22 14:00:00 13.4 20 Sudoeste 31 Sudoeste 0.2 -- -- 88
2020-10-22 13:00:00 12.8 15 Sudoeste 26 Sudoeste 0.4 -- -- 92
2020-10-22 12:00:00 11.8 8 Sudoeste 12 Sudoeste 1.6 -- -- 95
2020-10-22 11:00:00 11.4 4 Sudoeste 11 Sudoeste 0 -- -- 94
2020-10-22 10:00:00 10.8 4 Sur 13 Sur 0 -- -- 96
2020-10-22 09:00:00 10.3 8 Sur 15 Sur 0.2 -- -- 97
2020-10-22 08:00:00 10.2 9 Sur 21 Oeste 0 -- -- 96
2020-10-22 07:00:00 10 10 Sudoeste 19 Sudoeste 0 -- -- 94
2020-10-22 06:00:00 10.6 8 Sudoeste 21 Sur 0.6 -- -- 96
2020-10-22 05:00:00 10.8 6 Sur 21 Sudoeste 0.8 -- -- 96
2020-10-22 04:00:00 10.9 11 Sudoeste 16 Sudoeste 0 -- -- 96
2020-10-22 03:00:00 10.9 10 Sudoeste 25 Sudoeste 0 -- -- 95
2020-10-22 02:00:00 10.9 18 Sudoeste 27 Sudoeste 0.4 -- -- 95
2020-10-22 01:00:00 10.8 8 Sudoeste 15 Sur 0.4 -- -- 94
2020-10-22 00:00:00 10.8 8 Sur 14 Sur 0.2 -- -- 93
2020-10-21 23:00:00 10.9 7 Sudoeste 13 Sudoeste 0 -- -- 92
2020-10-21 22:00:00 11.1 6 Oeste 14 Sur 0 -- -- 93
2020-10-21 21:00:00 11.1 12 Sur 26 Sudoeste 0 -- -- 93
2020-10-21 20:00:00 10.8 14 Sudoeste 24 Sudoeste 0 -- -- 94
2020-10-21 19:00:00 11.5 19 Sudoeste 39 Sudoeste 0.4 -- -- 91
2020-10-21 18:00:00 15 23 Sudoeste 49 Sudoeste 0 -- -- 61
2020-10-21 17:00:00 15.5 27 Sudoeste 55 Sudoeste 0 -- -- 59
2020-10-21 16:00:00 16.2 36 Sudoeste 63 Sur 0 -- -- 58
2020-10-21 15:00:00 15.6 35 Sudoeste 62 Sudoeste 0 -- -- 63
2020-10-21 14:00:00 14.1 34 Sudoeste 63 Sudoeste 0 -- -- 78
2020-10-21 13:00:00 13.9 38 Sudoeste 66 Sudoeste 0 -- -- 79
2020-10-21 12:00:00 13.2 36 Sudoeste 56 Sudoeste 0 -- -- 84
2020-10-21 11:00:00 11.7 28 Sudoeste 52 Sudoeste 0.2 -- -- 93
2020-10-21 10:00:00 11.2 25 Sudoeste 52 Sudoeste 0 -- -- 94
2020-10-21 09:00:00 10.5 25 Sudoeste 59 Sur 0 -- -- 94
2020-10-21 08:00:00 10.7 34 Sudoeste 60 Sudoeste 0 -- -- 91
2020-10-21 07:00:00 10.7 35 Sudoeste 61 Sudoeste 0 -- -- 92
2020-10-21 06:00:00 10.8 32 Sudoeste 63 Sudoeste 0 -- -- 93
2020-10-21 05:00:00 11.2 32 Sudoeste 53 Sudoeste 0.4 -- -- 94
2020-10-21 04:00:00 11 34 Sudoeste 57 Sudoeste 0.4 -- -- 94
2020-10-21 03:00:00 11 32 Sudoeste 69 Sur 0.2 -- -- 92
2020-10-21 02:00:00 11.3 46 Sudoeste 70 Sudoeste 0 -- -- 92
2020-10-21 01:00:00 11.2 30 Sudoeste 46 Sur 0 -- -- 88
2020-10-21 00:00:00 12.1 31 Sudoeste 72 Sudoeste 3.2 -- -- 93
2020-10-20 23:00:00 13.2 37 Sudoeste 65 Sudoeste 2.2 -- -- 92
2020-10-20 22:00:00 13.5 37 Sudoeste 59 Sur 2.6 -- -- 90
2020-10-20 21:00:00 13.1 13 Sudoeste 48 Sur 6 -- -- 93
2020-10-20 20:00:00 13.7 28 Sur 57 Sur 3.8 -- -- 91
2020-10-20 19:00:00 14.1 31 Sur 52 Sur 2.8 -- -- 88
2020-10-20 18:00:00 14 34 Sur 55 Sudeste 3 -- -- 89
2020-10-20 17:00:00 13.9 34 Sur 64 Sur 3.2 -- -- 89
2020-10-20 16:00:00 14.6 28 Sur 46 Sudeste 3.8 -- -- 89
2020-10-20 15:00:00 13.8 2 Sur 16 Sudeste 4.6 -- -- 93
2020-10-20 14:00:00 13.8 2 Sudeste 19 Sur 1.8 -- -- 92
2020-10-20 13:00:00 13.9 14 Sudeste 24 Sudeste 1 -- -- 90
2020-10-20 12:00:00 14.3 10 Sur 17 Sur 0.2 -- -- 93
2020-10-20 11:00:00 13.9 13 Sudoeste 23 Sudoeste 0.2 -- -- 93
2020-10-20 10:00:00 13.8 12 Sudoeste 32 Sudoeste 0.4 -- -- 93
2020-10-20 09:00:00 13.7 17 Sudoeste 36 Sudoeste 0 -- -- 92
2020-10-20 08:00:00 13.8 21 Sudoeste 52 Sudoeste 1.2 -- -- 93
2020-10-20 07:00:00 14.8 33 Sudoeste 52 Sudoeste 0.2 -- -- 85
2020-10-20 06:00:00 13.8 28 Sudoeste 46 Sur 1.6 -- -- 91
2020-10-20 05:00:00 13.1 20 Sur 32 Sur 2.2 -- -- 91
2020-10-20 04:00:00 12.7 11 Sudoeste 28 Sudoeste 0.8 -- -- 93
2020-10-20 03:00:00 12.4 18 Sur 26 Sudoeste 0.6 -- -- 91
2020-10-20 02:00:00 13.6 17 Sudoeste 42 Sur 0 -- -- 75
2020-10-20 01:00:00 16.3 31 Sur 60 Sur 0 -- -- 50
2020-10-20 00:00:00 17.6 35 Sudoeste 53 Sudoeste 0 -- -- 47
2020-10-19 23:00:00 15.4 20 Sur 44 Sudoeste 0 -- -- 58
2020-10-19 22:00:00 15.2 20 Sudoeste 53 Sudoeste 0 -- -- 59
2020-10-19 21:00:00 16.3 36 Sudoeste 59 Sudoeste 0 -- -- 52
2020-10-19 20:00:00 18.6 29 Sudoeste 59 Sudoeste 0 -- -- 37
2020-10-19 19:00:00 20.1 27 Sudoeste 57 Sudoeste 0 -- -- 32
2020-10-19 18:00:00 20.5 24 Sudoeste 43 Sudoeste 0 -- -- 30
2020-10-19 17:00:00 20.7 24 Sudoeste 61 Sudoeste 0 -- -- 31
2020-10-19 16:00:00 21 35 Sudoeste 64 Sur 0 -- -- 30
2020-10-19 15:00:00 23.3 32 Sudoeste 58 Sudoeste 0 -- -- 27
2020-10-19 14:00:00 22.8 39 Sudoeste 76 Sudoeste 0 -- -- 28
2020-10-19 13:00:00 22.3 39 Sudoeste 67 Sudoeste 0 -- -- 29
2020-10-19 12:00:00 21.2 35 Sudoeste 62 Sudoeste 0 -- -- 31
2020-10-19 11:00:00 18.2 13 Sudoeste 28 Sudoeste 0 -- -- 37
2020-10-19 10:00:00 11.8 14 Sudoeste 21 Sudoeste 0 -- -- 53
2020-10-19 09:00:00 2.4 4 Noroeste 13 Oeste 0 -- -- 78
2020-10-19 08:00:00 2.1 10 Sudoeste 15 Oeste 0 -- -- 79
2020-10-19 07:00:00 2.5 3 Noroeste 9 Oeste 0 -- -- 80
2020-10-19 06:00:00 2.6 6 Oeste 17 Oeste 0 -- -- 78
2020-10-19 05:00:00 2.3 6 Sudoeste 10 Sudoeste 0 -- -- 80
2020-10-19 04:00:00 3.4 4 Oeste 12 Este 0 -- -- 77
2020-10-19 03:00:00 3.7 7 Norte 10 Oeste 0 -- -- 79
2020-10-19 02:00:00 5.4 3 Noroeste 7 Oeste 0 -- -- 73
2020-10-19 01:00:00 5.8 4 Norte 8 Noroeste 0 -- -- 72
2020-10-19 00:00:00 6.7 4 Noroeste 9 Oeste 0 -- -- 71
2020-10-18 23:00:00 8.5 4 Oeste 13 Oeste 0 -- -- 63
2020-10-18 22:00:00 10.3 6 Sudoeste 12 Sudoeste 0 -- -- 57
2020-10-18 21:00:00 12.6 9 Sudoeste 10 Sudoeste 0 -- -- 50
2020-10-18 20:00:00 16.2 5 Oeste 9 Sudoeste 0 -- -- 42
2020-10-18 19:00:00 19 3 Sudoeste 10 Oeste 0 -- -- 36
2020-10-18 18:00:00 20.3 4 Sudoeste 13 Nordeste 0 -- -- 33
2020-10-18 17:00:00 20.9 6 Nordeste 13 Nordeste 0 -- -- 31
2020-10-18 16:00:00 21.6 6 Este 18 Este 0 -- -- 30
2020-10-18 15:00:00 21.2 6 Nordeste 17 Este 0 -- -- 31
2020-10-18 14:00:00 20.4 7 Nordeste 15 Nordeste 0 -- -- 32
2020-10-18 13:00:00 19 6 Sudeste 12 Sur 0 -- -- 34
2020-10-18 12:00:00 16.4 5 Este 10 Sudeste 0 -- -- 41
2020-10-18 11:00:00 10 2 Oeste 6 Oeste 0 -- -- 64
2020-10-18 10:00:00 3.5 4 Oeste 5 Oeste 0 -- -- 85
2020-10-18 09:00:00 0.4 4 Noroeste 8 Oeste 0 -- -- 90
2020-10-18 08:00:00 0.4 5 Noroeste 9 Oeste 0 -- -- 90
2020-10-18 07:00:00 0.7 3 Noroeste 9 Oeste 0 -- -- 88
2020-10-18 06:00:00 0.7 3 Noroeste 7 Oeste 0 -- -- 88
2020-10-18 05:00:00 1 4 Oeste 6 Noroeste 0 -- -- 86
2020-10-18 04:00:00 1.7 5 Noroeste 7 Oeste 0 -- -- 83
2020-10-18 03:00:00 2.3 3 Noroeste 8 Oeste 0 -- -- 81
2020-10-18 02:00:00 3.4 6 Oeste 9 Oeste 0 -- -- 79
2020-10-18 01:00:00 4.9 6 Oeste 8 Noroeste 0 -- -- 73
2020-10-18 00:00:00 6.4 5 Oeste 9 Sur 0 -- -- 67
2020-10-17 23:00:00 7.5 4 Sudeste 9 Sudoeste 0 -- -- 65
2020-10-17 22:00:00 9.3 7 Sudoeste 10 Sudoeste 0 -- -- 58
2020-10-17 21:00:00 11.4 4 Sudoeste 10 Sudoeste 0 -- -- 52
2020-10-17 20:00:00 13.9 9 Sudoeste 19 Sudoeste 0 -- -- 46
2020-10-17 19:00:00 17.4 12 Sudoeste 20 Sur 0 -- -- 39
2020-10-17 18:00:00 18.6 12 Sudoeste 23 Sudoeste 0 -- -- 36
2020-10-17 17:00:00 18.9 14 Sudoeste 24 Oeste 0 -- -- 34
2020-10-17 16:00:00 18.7 12 Sudoeste 26 Sudoeste 0 -- -- 34
2020-10-17 15:00:00 18.3 11 Sudoeste 24 Sudoeste 0 -- -- 34
2020-10-17 14:00:00 17.4 16 Sudoeste 28 Sudoeste 0 -- -- 35
2020-10-17 13:00:00 16.2 17 Sudoeste 31 Sudoeste 0 -- -- 37
2020-10-17 12:00:00 13.9 12 Sudoeste 20 Sudoeste 0 -- -- 46
2020-10-17 11:00:00 8.2 5 Sudoeste 11 Sudoeste 0 -- -- 65
2020-10-17 10:00:00 3 3 Sudoeste 8 Oeste 0 -- -- 80
2020-10-17 09:00:00 1.8 3 Oeste 9 Oeste 0 -- -- 80
2020-10-17 08:00:00 1.1 7 Oeste 9 Oeste 0 -- -- 84
2020-10-17 07:00:00 0.9 8 Oeste 9 Noroeste 0 -- -- 83
2020-10-17 06:00:00 0.3 7 Oeste 9 Oeste 0 -- -- 85
2020-10-17 05:00:00 -0.1 5 Oeste 10 Oeste 0 -- -- 83
2020-10-17 04:00:00 0.1 7 Noroeste 9 Noroeste 0 -- -- 84
2020-10-17 03:00:00 0 3 Noroeste 8 Noroeste 0 -- -- 80
2020-10-17 02:00:00 0.1 5 Noroeste 9 Oeste 0 -- -- 80
2020-10-17 01:00:00 1.1 4 Oeste 7 Oeste 0 -- -- 75
2020-10-17 00:00:00 1.7 7 Oeste 10 Oeste 0 -- -- 72
2020-10-16 23:00:00 3.7 4 Noroeste 8 Noroeste 0 -- -- 66
2020-10-16 22:00:00 5.1 5 Oeste 10 Oeste 0 -- -- 61
2020-10-16 21:00:00 9.1 0 Calma 11 Nordeste 0 -- -- 49
2020-10-16 20:00:00 10.9 10 Nordeste 19 Nordeste 0 -- -- 45
2020-10-16 19:00:00 14.4 13 Nordeste 17 Nordeste 0 -- -- 37
2020-10-16 18:00:00 15.4 10 Este 16 Este 0 -- -- 33
2020-10-16 17:00:00 15.6 10 Este 20 Nordeste 0 -- -- 33
2020-10-16 16:00:00 15.4 8 Sudeste 17 Nordeste 0 -- -- 33
2020-10-16 15:00:00 15 8 Nordeste 20 Nordeste 0 -- -- 33
2020-10-16 14:00:00 14.4 6 Nordeste 18 Nordeste 0 -- -- 35
2020-10-16 13:00:00 13.1 10 Nordeste 21 Este 0 -- -- 40
2020-10-16 12:00:00 11.4 12 Nordeste 19 Nordeste 0 -- -- 46
2020-10-16 11:00:00 7 4 Nordeste 9 Nordeste 0 -- -- 65
2020-10-16 10:00:00 2.9 4 Nordeste 6 Noroeste 0 -- -- 87
2020-10-16 09:00:00 -1.5 5 Sudoeste 13 Oeste 0 -- -- 94
2020-10-16 08:00:00 -0.6 0 Calma 6 Oeste 0 -- -- 93
2020-10-16 07:00:00 0.1 8 Nordeste 10 Nordeste 0 -- -- 89
2020-10-16 06:00:00 0.7 2 Oeste 13 Nordeste 0 -- -- 88
2020-10-16 05:00:00 1.9 9 Nordeste 15 Nordeste 0 -- -- 86
2020-10-16 04:00:00 2.5 7 Nordeste 18 Nordeste 0 -- -- 82
2020-10-16 03:00:00 3.6 15 Nordeste 19 Nordeste 0 -- -- 79
2020-10-16 02:00:00 4.2 10 Nordeste 29 Nordeste 0 -- -- 76
2020-10-16 01:00:00 5.8 15 Nordeste 27 Nordeste 0 -- -- 71
2020-10-16 00:00:00 6.8 19 Nordeste 27 Nordeste 0 -- -- 68
2020-10-15 23:00:00 6.9 14 Nordeste 24 Nordeste 0 -- -- 68
2020-10-15 22:00:00 6.8 7 Noroeste 11 Oeste 0 -- -- 63
2020-10-15 21:00:00 9.1 3 Noroeste 15 Nordeste 0 -- -- 56
2020-10-15 20:00:00 11.3 10 Nordeste 18 Nordeste 0 -- -- 50
2020-10-15 19:00:00 13.7 10 Nordeste 19 Nordeste 0 -- -- 42
2020-10-15 18:00:00 14.4 15 Nordeste 27 Nordeste 0 -- -- 40
2020-10-15 17:00:00 15.1 17 Nordeste 29 Norte 0 -- -- 38
2020-10-15 16:00:00 15.7 15 Este 31 Norte 0 -- -- 41
2020-10-15 15:00:00 15 13 Nordeste 29 Nordeste 0 -- -- 43
2020-10-15 14:00:00 13.9 11 Nordeste 21 Nordeste 0 -- -- 46
2020-10-15 13:00:00 13.1 11 Nordeste 19 Nordeste 0 -- -- 50
2020-10-15 12:00:00 10.8 12 Nordeste 19 Nordeste 0 -- -- 61
2020-10-15 11:00:00 6.8 5 Norte 8 Norte 0 -- -- 76
2020-10-15 10:00:00 1.3 0 Calma 6 Sudoeste 0 -- -- 89
2020-10-15 09:00:00 -2.7 6 Sudoeste 8 Oeste 0 -- -- 94
2020-10-15 08:00:00 -2.8 5 Oeste 6 Oeste 0 -- -- 91
2020-10-15 07:00:00 -2.1 8 Sudoeste 10 Sudoeste 0 -- -- 92
2020-10-15 06:00:00 -1.5 3 Oeste 6 Noroeste 0 -- -- 89
2020-10-15 05:00:00 -0.4 3 Noroeste 8 Oeste 0 -- -- 89
2020-10-15 04:00:00 0.3 6 Oeste 9 Oeste 0 -- -- 87
2020-10-15 03:00:00 1.5 5 Oeste 9 Sudoeste 0 -- -- 84
2020-10-15 02:00:00 2.6 6 Noroeste 10 Norte 0 -- -- 83
2020-10-15 01:00:00 4.6 3 Oeste 10 Sudoeste 0 -- -- 75
2020-10-15 00:00:00 6.5 2 Nordeste 15 Noroeste 0 -- -- 69
2020-10-14 23:00:00 7.9 7 Noroeste 22 Noroeste 0 -- -- 64
2020-10-14 22:00:00 9.8 13 Noroeste 20 Noroeste 0 -- -- 59
2020-10-14 21:00:00 11.1 8 Noroeste 20 Noroeste 0 -- -- 55
2020-10-14 20:00:00 12.7 10 Noroeste 25 Noroeste 0 -- -- 49
2020-10-14 19:00:00 14.5 12 Noroeste 24 Noroeste 0 -- -- 43
2020-10-14 18:00:00 15.7 10 Norte 32 Norte 0 -- -- 38
2020-10-14 17:00:00 14.6 10 Noroeste 21 Norte 0 -- -- 41
2020-10-14 16:00:00 15.3 14 Norte 23 Norte 0 -- -- 37
2020-10-14 15:00:00 14.9 11 Norte 20 Nordeste 0 -- -- 42
2020-10-14 14:00:00 14.3 8 Norte 26 Norte 0 -- -- 45
2020-10-14 13:00:00 13.3 13 Norte 26 Norte 0 -- -- 49
2020-10-14 12:00:00 11.5 7 Nordeste 22 Norte 0 -- -- 57
2020-10-14 11:00:00 8 4 Sudoeste 7 Sudoeste 0 -- -- 78
2020-10-14 10:00:00 3.6 0 Calma 6 Oeste 0 -- -- 97
2020-10-14 09:00:00 -0.2 0 Calma 8 Oeste 0 -- -- 95
2020-10-14 08:00:00 0 5 Oeste 9 Noroeste 0 -- -- 95
2020-10-14 07:00:00 1.2 5 Noroeste 10 Oeste 0 -- -- 94
2020-10-14 06:00:00 1.8 0 Calma 5 Norte 0 -- -- 93
2020-10-14 05:00:00 3.4 4 Norte 6 Noroeste 0 -- -- 89
2020-10-14 04:00:00 3.8 3 Norte 8 Noroeste 0 -- -- 91
2020-10-14 03:00:00 4.1 2 Sudoeste 12 Noroeste 0 -- -- 88
2020-10-14 02:00:00 6.8 2 Norte 12 Norte 0 -- -- 82
2020-10-14 01:00:00 9.8 8 Norte 13 Norte 0 -- -- 74
2020-10-14 00:00:00 10.3 0 Calma 6 Oeste 0 -- -- 73
2020-10-13 23:00:00 11 4 Oeste 19 Noroeste 0 -- -- 70
2020-10-13 22:00:00 12.3 6 Oeste 18 Noroeste 0 -- -- 68
2020-10-13 21:00:00 14 9 Noroeste 16 Oeste 0 -- -- 59
2020-10-13 20:00:00 16.2 10 Noroeste 28 Noroeste 0 -- -- 50
2020-10-13 19:00:00 18.8 16 Oeste 34 Noroeste 0 -- -- 46
2020-10-13 18:00:00 19.8 18 Oeste 44 Oeste 0 -- -- 43
2020-10-13 17:00:00 20.6 19 Oeste 34 Oeste 0 -- -- 41
2020-10-13 16:00:00 20.9 19 Oeste 35 Oeste 0 -- -- 43
2020-10-13 15:00:00 20.5 17 Sudoeste 27 Sudoeste 0 -- -- 49
2020-10-13 14:00:00 19.9 10 Noroeste 24 Noroeste 0 -- -- 49
2020-10-13 13:00:00 17.8 8 Oeste 19 Sudoeste 0 -- -- 62
2020-10-13 12:00:00 15.6 9 Oeste 17 Oeste 0 -- -- 71
2020-10-13 11:00:00 13.4 6 Sudoeste 12 Sur 0 -- -- 78
2020-10-13 10:00:00 8.8 6 Sur 12 Oeste 0 -- -- 92
2020-10-13 09:00:00 3.4 5 Oeste 9 Oeste 0 -- -- 90
2020-10-13 08:00:00 3.7 8 Oeste 11 Oeste 0 -- -- 84
2020-10-13 07:00:00 2.9 4 Oeste 8 Oeste 0 -- -- 84
2020-10-13 06:00:00 2.9 3 Noroeste 8 Oeste 0 -- -- 83
2020-10-13 05:00:00 3.3 5 Sudoeste 10 Oeste 0 -- -- 80
2020-10-13 04:00:00 3 6 Sudoeste 10 Sudoeste 0 -- -- 80
2020-10-13 03:00:00 3.4 5 Oeste 8 Sudoeste 0 -- -- 79
2020-10-13 02:00:00 3.6 4 Oeste 8 Oeste 0 -- -- 79
2020-10-13 01:00:00 -- -- -- -- -- -- -- -- --
2020-10-13 00:00:00 3.9 8 Oeste 12 Sudoeste 0 -- -- 76
2020-10-12 23:00:00 4.9 5 Sudoeste 12 Oeste 0 -- -- 70
2020-10-12 22:00:00 7.3 7 Noroeste 12 Noroeste 0 -- -- 62
2020-10-12 21:00:00 10 3 Oeste 8 Este 0 -- -- 53
2020-10-12 20:00:00 12.6 5 Este 13 Nordeste 0 -- -- 45
2020-10-12 19:00:00 15.2 11 Nordeste 21 Nordeste 0 -- -- 40
2020-10-12 18:00:00 16.1 15 Nordeste 31 Nordeste 0 -- -- 37
2020-10-12 17:00:00 16.3 17 Nordeste 27 Nordeste 0 -- -- 38
2020-10-12 16:00:00 16.3 17 Nordeste 29 Nordeste 0 -- -- 38
2020-10-12 15:00:00 15.6 17 Nordeste 32 Nordeste 0 -- -- 41
2020-10-12 14:00:00 15.2 17 Nordeste 33 Este 0 -- -- 44
2020-10-12 13:00:00 13.7 23 Nordeste 40 Nordeste 0 -- -- 47
2020-10-12 12:00:00 12.9 22 Nordeste 39 Este 0 -- -- 51
2020-10-12 11:00:00 10 17 Nordeste 28 Este 0 -- -- 63
2020-10-12 10:00:00 5 8 Nordeste 12 Nordeste 0 -- -- 87
2020-10-12 09:00:00 1.1 8 Nordeste 11 Nordeste 0 -- -- 94
2020-10-12 08:00:00 0.7 4 Norte 5 Norte 0 -- -- 93
2020-10-12 07:00:00 2 4 Nordeste 10 Nordeste 0 -- -- 93
2020-10-12 06:00:00 2.2 9 Nordeste 14 Nordeste 0 -- -- 91
2020-10-12 05:00:00 3.1 10 Nordeste 14 Nordeste 0 -- -- 87
2020-10-12 04:00:00 -- -- -- -- -- -- -- -- --
2020-10-12 03:00:00 4.9 12 Nordeste 24 Nordeste 0 -- -- 80
2020-10-12 02:00:00 4.9 15 Nordeste 21 Nordeste 0 -- -- 80
2020-10-12 01:00:00 6.4 11 Nordeste 25 Nordeste 0 -- -- 72
2020-10-12 00:00:00 7.1 18 Nordeste 24 Nordeste 0 -- -- 70
2020-10-11 23:00:00 7.7 15 Nordeste 19 Nordeste 0 -- -- 66
2020-10-11 22:00:00 8 5 Nordeste 9 Este 0 -- -- 64
2020-10-11 21:00:00 -- -- -- -- -- -- -- -- --
2020-10-11 20:00:00 -- -- -- -- -- -- -- -- --
2020-10-11 19:00:00 14.4 17 Nordeste 35 Nordeste 0 -- -- 44
2020-10-11 18:00:00 15.5 20 Nordeste 37 Nordeste 0 -- -- 41
2020-10-11 17:00:00 16 21 Nordeste 33 Nordeste 0 -- -- 40
2020-10-11 16:00:00 15.7 21 Nordeste 45 Nordeste 0 -- -- 43
2020-10-11 15:00:00 15.1 26 Nordeste 42 Nordeste 0 -- -- 45
2020-10-11 14:00:00 14 31 Nordeste 47 Nordeste 0 -- -- 45
2020-10-11 13:00:00 13.1 27 Nordeste 45 Nordeste 0 -- -- 47
2020-10-11 12:00:00 11.4 32 Nordeste 44 Nordeste 0 -- -- 54
2020-10-11 11:00:00 10 28 Nordeste 42 Nordeste 0 -- -- 63
2020-10-11 10:00:00 7.8 21 Nordeste 40 Este 0 -- -- 77
2020-10-11 09:00:00 5.1 15 Nordeste 20 Nordeste 0 -- -- 92
2020-10-11 08:00:00 3.7 10 Nordeste 14 Nordeste 0 -- -- 94
2020-10-11 07:00:00 3.8 6 Nordeste 18 Nordeste 0 -- -- 92
2020-10-11 06:00:00 5 12 Nordeste 19 Nordeste 0 -- -- 89
2020-10-11 05:00:00 6 13 Nordeste 20 Nordeste 0 -- -- 86
2020-10-11 04:00:00 6 12 Nordeste 22 Nordeste 0 -- -- 85
2020-10-11 03:00:00 7.2 18 Nordeste 25 Nordeste 0 -- -- 80
2020-10-11 02:00:00 8.3 18 Nordeste 29 Nordeste 0 -- -- 74
2020-10-11 01:00:00 9.5 22 Nordeste 36 Nordeste 0 -- -- 70
2020-10-11 00:00:00 10.3 27 Nordeste 41 Nordeste 0 -- -- 68
2020-10-10 23:00:00 11.4 24 Nordeste 35 Nordeste 0 -- -- 67
2020-10-10 22:00:00 12.7 23 Nordeste 32 Nordeste 0 -- -- 66
2020-10-10 21:00:00 14.1 20 Nordeste 34 Nordeste 0 -- -- 64
2020-10-10 20:00:00 16.1 26 Nordeste 39 Nordeste 0 -- -- 59
2020-10-10 19:00:00 19.1 23 Nordeste 35 Nordeste 0 -- -- 50
2020-10-10 18:00:00 20.5 23 Nordeste 32 Nordeste 0 -- -- 44
2020-10-10 17:00:00 21.2 20 Nordeste 35 Nordeste 0 -- -- 43
2020-10-10 16:00:00 21 23 Nordeste 36 Nordeste 0 -- -- 44
2020-10-10 15:00:00 20.4 27 Nordeste 42 Nordeste 0 -- -- 45
2020-10-10 14:00:00 19.3 24 Nordeste 39 Nordeste 0 -- -- 52
2020-10-10 13:00:00 18.1 18 Nordeste 27 Nordeste 0 -- -- 62
2020-10-10 12:00:00 14.5 11 Nordeste 24 Norte 0 -- -- 77
2020-10-10 11:00:00 10.9 16 Nordeste 22 Nordeste 0 -- -- 93
2020-10-10 10:00:00 9.6 11 Nordeste 17 Nordeste 0 -- -- 97
2020-10-10 09:00:00 8.4 11 Nordeste 15 Nordeste 0 -- -- 95
2020-10-10 08:00:00 5.7 4 Norte 6 Norte 0 -- -- 93
2020-10-10 07:00:00 5.5 0 Calma 5 Nordeste 0 -- -- 90
2020-10-10 06:00:00 5.6 3 Noroeste 7 Oeste 0 -- -- 88
2020-10-10 05:00:00 6.1 4 Oeste 8 Norte 0 -- -- 88
2020-10-10 04:00:00 6.7 4 Noroeste 8 Oeste 0 -- -- 84
2020-10-10 03:00:00 7.2 4 Oeste 8 Sudoeste 0 -- -- 84
2020-10-10 02:00:00 8 5 Noroeste 8 Oeste 0 -- -- 79
2020-10-10 01:00:00 9.1 5 Oeste 8 Oeste 0 -- -- 74
2020-10-10 00:00:00 10.4 8 Sudoeste 8 Sudoeste 0 -- -- 65
2020-10-09 23:00:00 11.9 5 Sudoeste 9 Oeste 0 -- -- 58
2020-10-09 22:00:00 13.8 5 Oeste 13 Oeste 0 -- -- 52
2020-10-09 21:00:00 16.3 9 Oeste 13 Noroeste 0 -- -- 46
2020-10-09 20:00:00 21 10 Noroeste 16 Noroeste 0 -- -- 32
2020-10-09 19:00:00 24 9 Oeste 18 Noroeste 0 -- -- 29
2020-10-09 18:00:00 24.9 10 Noroeste 24 Noroeste 0 -- -- 26
2020-10-09 17:00:00 25.3 14 Oeste 26 Noroeste 0 -- -- 31
2020-10-09 16:00:00 25.3 14 Noroeste 24 Noroeste 0 -- -- 34
2020-10-09 15:00:00 25.6 8 Sudoeste 24 Oeste 0 -- -- 33
2020-10-09 14:00:00 24.9 10 Oeste 19 Noroeste 0 -- -- 32
2020-10-09 13:00:00 23 6 Oeste 13 Sudoeste 0 -- -- 42
2020-10-09 12:00:00 20.1 4 Este 7 Nordeste 0 -- -- 45
2020-10-09 11:00:00 14.3 4 Oeste 6 Oeste 0 -- -- 63
2020-10-09 10:00:00 8.5 3 Oeste 8 Oeste 0 -- -- 90
2020-10-09 09:00:00 5.1 4 Noroeste 9 Oeste 0 -- -- 95
2020-10-09 08:00:00 5.6 5 Noroeste 8 Oeste 0 -- -- 93
2020-10-09 07:00:00 6.3 5 Oeste 7 Oeste 0 -- -- 92
2020-10-09 06:00:00 6.7 6 Noroeste 8 Noroeste 0 -- -- 91
2020-10-09 05:00:00 7 4 Oeste 9 Oeste 0 -- -- 90
2020-10-09 04:00:00 8.2 5 Oeste 11 Sudoeste 0 -- -- 85
2020-10-09 03:00:00 9 7 Oeste 10 Oeste 0 -- -- 83
2020-10-09 02:00:00 8.9 4 Oeste 11 Oeste 0 -- -- 83
2020-10-09 01:00:00 10.7 6 Oeste 8 Oeste 0 -- -- 76
2020-10-09 00:00:00 12.6 5 Oeste 12 Oeste 0 -- -- 71
2020-10-08 23:00:00 13.4 9 Oeste 12 Oeste 0 -- -- 67
2020-10-08 22:00:00 15.7 6 Sudoeste 11 Sudoeste 0 -- -- 59
2020-10-08 21:00:00 17.9 7 Sudoeste 12 Sudoeste 0 -- -- 52
2020-10-08 20:00:00 20.2 8 Sudoeste 23 Sudoeste 0 -- -- 46
2020-10-08 19:00:00 23.4 16 Sudoeste 27 Sudoeste 0 -- -- 39
2020-10-08 18:00:00 23.6 16 Sudoeste 31 Oeste 0 -- -- 38
2020-10-08 17:00:00 25.2 21 Oeste 39 Sudoeste 0 -- -- 36
2020-10-08 16:00:00 25.5 23 Sudoeste 43 Sudoeste 0 -- -- 33
2020-10-08 15:00:00 24.8 21 Sudoeste 32 Sudoeste 0 -- -- 33
2020-10-08 14:00:00 23.9 14 Sudoeste 22 Sudoeste 0 -- -- 37
2020-10-08 13:00:00 23.5 5 Sur 15 Sudeste 0 -- -- 38
2020-10-08 12:00:00 20.8 0 Calma 8 Nordeste 0 -- -- 52
2020-10-08 11:00:00 15.1 0 Calma 7 Oeste 0 -- -- 79
2020-10-08 10:00:00 9.2 3 Noroeste 8 Oeste 0 -- -- 98
2020-10-08 09:00:00 6.1 4 Noroeste 9 Oeste 0 -- -- 96
2020-10-08 08:00:00 5.7 4 Oeste 10 Oeste 0 -- -- 97
2020-10-08 07:00:00 5.9 6 Oeste 9 Oeste 0 -- -- 96
2020-10-08 06:00:00 6.7 3 Oeste 6 Oeste 0 -- -- 95
2020-10-08 05:00:00 7.5 4 Oeste 6 Oeste 0 -- -- 95
2020-10-08 04:00:00 7.8 5 Oeste 8 Oeste 0 -- -- 93
2020-10-08 03:00:00 8.1 5 Sudoeste 6 Oeste 0 -- -- 92
2020-10-08 02:00:00 9.1 5 Oeste 8 Oeste 0 -- -- 89
2020-10-08 01:00:00 10 4 Sudoeste 9 Oeste 0 -- -- 90
2020-10-08 00:00:00 11.2 5 Oeste 10 Oeste 0 -- -- 86
2020-10-07 23:00:00 12.6 0 Calma 10 Oeste 0 -- -- 79
2020-10-07 22:00:00 14.5 3 Noroeste 6 Noroeste 0 -- -- 72
2020-10-07 21:00:00 17.8 4 Nordeste 12 Nordeste 0 -- -- 62
2020-10-07 20:00:00 20.2 9 Nordeste 12 Nordeste 0 -- -- 54
2020-10-07 19:00:00 23.9 9 Nordeste 12 Nordeste 0 -- -- 44
2020-10-07 18:00:00 24.6 5 Nordeste 17 Nordeste 0 -- -- 43
2020-10-07 17:00:00 24.5 11 Nordeste 20 Nordeste 0 -- -- 44
2020-10-07 16:00:00 24.5 12 Nordeste 23 Nordeste 0 -- -- 45
2020-10-07 15:00:00 23.7 14 Nordeste 26 Norte 0 -- -- 47
2020-10-07 14:00:00 22.6 16 Nordeste 29 Nordeste 0 -- -- 50
2020-10-07 13:00:00 20.2 14 Nordeste 22 Norte 0 -- -- 59
2020-10-07 12:00:00 17.3 10 Nordeste 14 Nordeste 0 -- -- 72
2020-10-07 11:00:00 12.1 2 Noroeste 6 Oeste 0 -- -- 99
2020-10-07 10:00:00 9.2 0 Calma 6 Oeste 0 -- -- 99
2020-10-07 09:00:00 7 5 Oeste 7 Oeste 0 -- -- 98
2020-10-07 08:00:00 7.1 4 Oeste 6 Noroeste 0 -- -- 97
2020-10-07 07:00:00 6.6 3 Noroeste 10 Oeste 0 -- -- 97
2020-10-07 06:00:00 6.8 6 Oeste 10 Oeste 0 -- -- 97
2020-10-07 05:00:00 6.6 5 Oeste 9 Oeste 0 -- -- 96
2020-10-07 04:00:00 8.4 3 Noroeste 9 Oeste 0 -- -- 93
2020-10-07 03:00:00 8.9 5 Oeste 9 Sur 0 -- -- 92
2020-10-07 02:00:00 9.3 7 Sudoeste 9 Sudoeste 0 -- -- 91
2020-10-07 01:00:00 10 5 Sudoeste 11 Sudoeste 0 -- -- 88
2020-10-07 00:00:00 11 5 Sudeste 11 Sudoeste 0 -- -- 86
2020-10-06 23:00:00 12.4 9 Sudoeste 14 Sudoeste 0 -- -- 80
2020-10-06 22:00:00 14 7 Oeste 9 Oeste 0 -- -- 74
2020-10-06 21:00:00 16.4 5 Sudoeste 8 Oeste 0 -- -- 66
2020-10-06 20:00:00 19.2 5 Oeste 18 Oeste 0 -- -- 59
2020-10-06 19:00:00 21.7 9 Oeste 26 Oeste 0 -- -- 54
2020-10-06 18:00:00 22.1 15 Noroeste 34 Noroeste 0 -- -- 54
2020-10-06 17:00:00 21.9 15 Noroeste 27 Noroeste 0 -- -- 53
2020-10-06 16:00:00 23.5 14 Oeste 25 Sudoeste 0 -- -- 50
2020-10-06 15:00:00 23 9 Sudoeste 22 Sudoeste 0 -- -- 52
2020-10-06 14:00:00 20.6 13 Sur 22 Sur 0 -- -- 60
2020-10-06 13:00:00 18.1 14 Sur 23 Sur 0 -- -- 70
2020-10-06 12:00:00 17.1 14 Sur 23 Sur 0 -- -- 75
2020-10-06 11:00:00 15 6 Sudoeste 10 Sudoeste 0 -- -- 84
2020-10-06 10:00:00 13.5 5 Sudoeste 10 Oeste 0 -- -- 90
2020-10-06 09:00:00 12.7 6 Oeste 14 Sudoeste 0 -- -- 93
2020-10-06 08:00:00 12.5 5 Sur 13 Sudoeste 0 -- -- 93
2020-10-06 07:00:00 12.4 8 Sudoeste 15 Sudoeste 0 -- -- 94
2020-10-06 06:00:00 12.5 10 Sudoeste 18 Sudoeste 0 -- -- 91
2020-10-06 05:00:00 12.4 9 Sudoeste 16 Sudoeste 0 -- -- 91
2020-10-06 04:00:00 12.5 10 Sudoeste 14 Sudoeste 0 -- -- 87
2020-10-06 03:00:00 13.1 6 Sudoeste 12 Sudoeste 0 -- -- 84
2020-10-06 02:00:00 13.4 8 Sudoeste 12 Sudoeste 0 -- -- 81
2020-10-06 01:00:00 13.8 6 Sudoeste 15 Sudoeste 0 -- -- 79
2020-10-06 00:00:00 14 9 Sudoeste 18 Sudoeste 0 -- -- 77
2020-10-05 23:00:00 14.2 10 Sudoeste 17 Sudoeste 0 -- -- 73
2020-10-05 22:00:00 14.5 8 Sudoeste 14 Sudoeste 0 -- -- 69
2020-10-05 21:00:00 14.8 8 Sudoeste 12 Oeste 0 -- -- 65
2020-10-05 20:00:00 14.7 10 Oeste 18 Oeste 0 -- -- 65
2020-10-05 19:00:00 17 10 Oeste 26 Oeste 0 -- -- 54
2020-10-05 18:00:00 17.8 14 Oeste 30 Oeste 0 -- -- 50
2020-10-05 17:00:00 17.7 17 Noroeste 32 Oeste 0 -- -- 48
2020-10-05 16:00:00 17.7 15 Noroeste 31 Norte 0 -- -- 47
2020-10-05 15:00:00 16.6 18 Noroeste 31 Noroeste 0 -- -- 47
2020-10-05 14:00:00 15 12 Noroeste 27 Oeste 0 -- -- 51
2020-10-05 13:00:00 13.5 13 Noroeste 27 Noroeste 0 -- -- 59
2020-10-05 12:00:00 13 9 Noroeste 25 Oeste 0 -- -- 59
2020-10-05 11:00:00 11.1 13 Oeste 24 Noroeste 0 -- -- 73
2020-10-05 10:00:00 9.9 8 Sudoeste 15 Sudoeste 0 -- -- 83
2020-10-05 09:00:00 6.8 6 Sur 21 Sudoeste 0 -- -- 90
2020-10-05 08:00:00 7.8 9 Sur 16 Sudoeste 0 -- -- 88
2020-10-05 07:00:00 8 6 Sudoeste 15 Sudoeste 0 -- -- 87
2020-10-05 06:00:00 8.3 10 Sudoeste 17 Sudoeste 0 -- -- 85
2020-10-05 05:00:00 8.2 9 Sudoeste 21 Sudoeste 0 -- -- 84
2020-10-05 04:00:00 8.4 8 Sudoeste 16 Sudoeste 0 -- -- 84
2020-10-05 03:00:00 8.8 11 Sudoeste 16 Sudoeste 0 -- -- 84
2020-10-05 02:00:00 8.8 6 Sudoeste 24 Sudoeste 0 -- -- 78
2020-10-05 01:00:00 10.1 10 Sudoeste 23 Sudoeste 0 -- -- 78
2020-10-05 00:00:00 9.9 13 Sudoeste 21 Sudoeste 0 -- -- 76
2020-10-04 23:00:00 9.9 9 Sudoeste 23 Oeste 0 -- -- 71
2020-10-04 22:00:00 10.6 8 Sudoeste 27 Oeste 0 -- -- 67
2020-10-04 21:00:00 11.8 16 Oeste 30 Oeste 0 -- -- 64
2020-10-04 20:00:00 12.8 16 Oeste 36 Oeste 0 -- -- 60
2020-10-04 19:00:00 14.5 17 Oeste 33 Oeste 0 -- -- 52
2020-10-04 18:00:00 14.2 18 Oeste 39 Oeste 0 -- -- 51
2020-10-04 17:00:00 14.5 25 Oeste 41 Oeste 0 -- -- 47
2020-10-04 16:00:00 15 19 Oeste 39 Oeste 0 -- -- 49
2020-10-04 15:00:00 14.7 25 Noroeste 46 Oeste 0 -- -- 50
2020-10-04 14:00:00 14 18 Oeste 36 Oeste 0 -- -- 58
2020-10-04 13:00:00 12.7 16 Oeste 27 Oeste 0 -- -- 68
2020-10-04 12:00:00 11.1 13 Oeste 32 Oeste 0 -- -- 83
2020-10-04 11:00:00 8.3 13 Sudoeste 34 Sudoeste 0.6 -- -- 96
2020-10-04 10:00:00 7.7 22 Sudoeste 36 Sudoeste 0 -- -- 94
2020-10-04 09:00:00 7.9 22 Sudoeste 35 Sudoeste 0 -- -- 91
2020-10-04 08:00:00 7.8 21 Sudoeste 32 Sudoeste 0 -- -- 89
2020-10-04 07:00:00 7.7 18 Sudoeste 32 Sudoeste 0 -- -- 87
2020-10-04 06:00:00 7.2 10 Sudoeste 24 Sudoeste 0 -- -- 88
2020-10-04 05:00:00 6.1 11 Sudoeste 17 Sudoeste 0 -- -- 90
2020-10-04 04:00:00 5.8 7 Sudoeste 18 Oeste 0 -- -- 87
2020-10-04 03:00:00 6.4 8 Sur 15 Sudoeste 0 -- -- 87
2020-10-04 02:00:00 8.5 10 Sudoeste 21 Oeste 0 -- -- 81
2020-10-04 01:00:00 8.9 11 Sudoeste 17 Sudoeste 0 -- -- 79
2020-10-04 00:00:00 7.7 5 Sudoeste 12 Sudoeste 0 -- -- 81
2020-10-03 23:00:00 6.6 6 Oeste 10 Sudoeste 0 -- -- 79
2020-10-03 22:00:00 7.7 7 Sudoeste 14 Sudoeste 0 -- -- 73
2020-10-03 21:00:00 9.3 9 Oeste 30 Oeste 0 -- -- 66
2020-10-03 20:00:00 11.2 13 Oeste 28 Oeste 0 -- -- 56
2020-10-03 19:00:00 12.2 12 Oeste 35 Oeste 0 -- -- 53
2020-10-03 18:00:00 13.5 22 Oeste 41 Oeste 0 -- -- 49
2020-10-03 17:00:00 13.7 23 Oeste 37 Oeste 0 -- -- 49
2020-10-03 16:00:00 14.2 25 Oeste 42 Oeste 0 -- -- 45
2020-10-03 15:00:00 13.2 23 Oeste 40 Oeste 0 -- -- 49
2020-10-03 14:00:00 11.3 18 Noroeste 41 Oeste 0 -- -- 57
2020-10-03 13:00:00 10.9 18 Oeste 37 Oeste 0 -- -- 63
2020-10-03 12:00:00 9.4 14 Oeste 36 Oeste 0 -- -- 68
2020-10-03 11:00:00 9 14 Oeste 28 Oeste 0 -- -- 72
2020-10-03 10:00:00 7.5 16 Oeste 29 Oeste 0 -- -- 78
2020-10-03 09:00:00 5.1 13 Oeste 19 Sudoeste 0 -- -- 89
2020-10-03 08:00:00 5 10 Oeste 22 Oeste 0 -- -- 88
2020-10-03 07:00:00 5.1 14 Oeste 21 Oeste 0 -- -- 89
2020-10-03 06:00:00 5.2 13 Oeste 22 Sudoeste 0 -- -- 89
2020-10-03 05:00:00 5.5 15 Oeste 28 Oeste 0 -- -- 87
2020-10-03 04:00:00 5.7 12 Oeste 21 Oeste 0 -- -- 85
2020-10-03 03:00:00 5.9 9 Oeste 22 Oeste 0 -- -- 84
2020-10-03 02:00:00 6.9 14 Oeste 36 Oeste 0 -- -- 80
2020-10-03 01:00:00 7.1 13 Sudoeste 26 Sudoeste 0 -- -- 81
2020-10-03 00:00:00 6.8 15 Oeste 29 Sudoeste 0 -- -- 82
2020-10-02 23:00:00 6.3 11 Sudoeste 18 Sudoeste 0 -- -- 81
2020-10-02 22:00:00 6.8 12 Sudoeste 25 Oeste 0 -- -- 78
2020-10-02 21:00:00 8 11 Oeste 36 Oeste 0 -- -- 71
2020-10-02 20:00:00 9 17 Oeste 45 Oeste 0 -- -- 60
2020-10-02 19:00:00 10.1 25 Noroeste 59 Noroeste 0 -- -- 59
2020-10-02 18:00:00 11.6 35 Noroeste 58 Oeste 0 -- -- 51
2020-10-02 17:00:00 11.1 27 Noroeste 53 Noroeste 0 -- -- 52
2020-10-02 16:00:00 11.9 35 Noroeste 55 Noroeste 0 -- -- 51
2020-10-02 15:00:00 10.9 28 Noroeste 62 Noroeste 0 -- -- 58
2020-10-02 14:00:00 9.1 33 Noroeste 54 Noroeste 1 -- -- 79
2020-10-02 13:00:00 8.4 29 Noroeste 49 Noroeste 0.8 -- -- 87
2020-10-02 12:00:00 9 28 Oeste 61 Noroeste 0 -- -- 92
2020-10-02 11:00:00 9.6 31 Oeste 69 Oeste 1.4 -- -- 94
2020-10-02 10:00:00 11.6 37 Oeste 65 Oeste 2 -- -- 92
2020-10-02 09:00:00 12.6 35 Sudoeste 59 Sudoeste 2.4 -- -- 96
2020-10-02 08:00:00 12 33 Sudoeste 57 Sudoeste 0.8 -- -- 96
2020-10-02 07:00:00 11.4 36 Sudoeste 57 Sudoeste 0.2 -- -- 93
2020-10-02 06:00:00 10.9 37 Sudoeste 60 Sudoeste 0 -- -- 92
2020-10-02 05:00:00 10.7 32 Sudoeste 57 Sudoeste 0 -- -- 89
2020-10-02 04:00:00 11.1 32 Sudoeste 57 Sudoeste 0 -- -- 81
2020-10-02 03:00:00 11.7 31 Sudoeste 49 Sudoeste 0 -- -- 78
2020-10-02 02:00:00 12.7 23 Sudoeste 42 Sudoeste 0 -- -- 72
2020-10-02 01:00:00 12.6 22 Sudoeste 31 Sudoeste 0 -- -- 72
2020-10-02 00:00:00 12.3 18 Sudoeste 36 Oeste 0 -- -- 71
2020-10-01 23:00:00 12.9 23 Sudoeste 35 Oeste 0 -- -- 71
2020-10-01 22:00:00 13.3 19 Oeste 33 Oeste 0 -- -- 69
2020-10-01 21:00:00 14 17 Oeste 35 Sudoeste 0 -- -- 63
2020-10-01 20:00:00 15.6 22 Oeste 37 Oeste 0 -- -- 55
2020-10-01 19:00:00 17.9 26 Oeste 43 Oeste 0 -- -- 47
2020-10-01 18:00:00 19.3 17 Oeste 39 Oeste 0 -- -- 44
2020-10-01 17:00:00 19.1 23 Oeste 38 Oeste 0 -- -- 45
2020-10-01 16:00:00 18.7 19 Oeste 31 Oeste 0 -- -- 44
2020-10-01 15:00:00 18.1 16 Oeste 30 Oeste 0 -- -- 48
2020-10-01 14:00:00 17.4 17 Oeste 27 Oeste 0 -- -- 52
2020-10-01 13:00:00 15.9 13 Oeste 27 Oeste 0 -- -- 58
2020-10-01 12:00:00 15.2 13 Oeste 27 Sudoeste 0 -- -- 63
2020-10-01 11:00:00 14 15 Oeste 25 Sudoeste 0 -- -- 74
2020-10-01 10:00:00 11.4 8 Sudoeste 16 Sudoeste 0 -- -- 91
2020-10-01 09:00:00 10.1 10 Sur 17 Sudoeste 0 -- -- 92
2020-10-01 08:00:00 9 10 Sudoeste 18 Sudoeste 0 -- -- 92
2020-10-01 07:00:00 7.9 5 Sudoeste 8 Sudoeste 0 -- -- 92
2020-10-01 06:00:00 8.7 4 Sudoeste 14 Sudoeste 0 -- -- 92
2020-10-01 05:00:00 9.3 9 Sudoeste 14 Sudoeste 0 -- -- 91
2020-10-01 04:00:00 10.6 0 Calma 9 Sudoeste 0 -- -- 89
2020-10-01 03:00:00 11.5 3 Sudoeste 13 Oeste 0 -- -- 87
2020-10-01 02:00:00 12.4 8 Oeste 13 Oeste 0 -- -- 86
2020-10-01 01:00:00 13.3 7 Sudoeste 13 Sudoeste 0 -- -- 79
2020-10-01 00:00:00 14.6 3 Sudoeste 13 Oeste 0 -- -- 71
2020-09-30 23:00:00 15.8 6 Oeste 18 Oeste 0 -- -- 66
2020-09-30 22:00:00 16.1 7 Oeste 13 Oeste 0 -- -- 56
2020-09-30 21:00:00 18.4 8 Oeste 20 Sudoeste 0 -- -- 45
2020-09-30 20:00:00 21 13 Sudoeste 28 Sudoeste 0 -- -- 37
2020-09-30 19:00:00 24.1 15 Sudoeste 27 Sudoeste 0 -- -- 33
2020-09-30 18:00:00 25.2 15 Sudoeste 29 Sudoeste 0 -- -- 32
2020-09-30 17:00:00 25.8 15 Sudoeste 31 Sudoeste 0 -- -- 32
2020-09-30 16:00:00 25.7 16 Oeste 27 Sudoeste 0 -- -- 33
2020-09-30 15:00:00 25.7 12 Sudoeste 26 Sudoeste 0 -- -- 30
2020-09-30 14:00:00 25 12 Oeste 24 Oeste 0 -- -- 30
2020-09-30 13:00:00 24 12 Oeste 19 Oeste 0 -- -- 32
2020-09-30 12:00:00 21.7 5 Oeste 12 Oeste 0 -- -- 35
2020-09-30 11:00:00 16 3 Oeste 9 Sudoeste 0 -- -- 54
2020-09-30 10:00:00 10.3 5 Sudoeste 7 Sudoeste 0 -- -- 71
2020-09-30 09:00:00 5.3 4 Oeste 8 Oeste 0 -- -- 86
2020-09-30 08:00:00 4.5 7 Oeste 8 Oeste 0 -- -- 88
2020-09-30 07:00:00 5.2 5 Oeste 8 Oeste 0 -- -- 85
2020-09-30 06:00:00 5.7 8 Oeste 11 Noroeste 0 -- -- 81
2020-09-30 05:00:00 6.6 4 Oeste 6 Oeste 0 -- -- 77
2020-09-30 04:00:00 7.1 6 Oeste 8 Sudoeste 0 -- -- 75
2020-09-30 03:00:00 7.1 5 Oeste 10 Oeste 0 -- -- 76
2020-09-30 02:00:00 8.3 6 Sudoeste 10 Oeste 0 -- -- 72
2020-09-30 01:00:00 9.2 6 Sudoeste 10 Sudoeste 0 -- -- 67
2020-09-30 00:00:00 10.2 8 Sudoeste 10 Oeste 0 -- -- 62